Prince Rupert Airport
CYPR : now visible

Airfield :











YOU CAN JOIN US ON...

 
LOGIN :

Register | Disclaimer

   EN    FR    IT 

 









Legend :    VFR   Marginal VFR   IFR   Intensive IFR   Very Intensive IFR
Visi :
Ceiling :
>= 8 km
>= 3000ft
5 to 8 km
1000 to 3000 ft
1500m to 5 km
500 to 1000 ft
800 to 1500m
200 to 500 ft
< 800m
< 200 ft
Symbols :   Thunderstorms  Fog  Heavy snow  Heavy precipitations  Wind > 20 kt






- Airport Elevation : 116 ft
- IATA code : YPR


CYPR - Prince Rupert

CURRENT METAR :
  • 181117Z AUTO 16003KT 9SM SCT010 BKN015 BKN031 OVC038 11/10 A3016 RMK SLP216

EXPIRED METARs :
  • 181021Z AUTO 17003KT 150V220 5SM -RA BR BKN015 BKN020 OVC046 11/10 A3016 RMK SLP216
  • 181006Z AUTO 00000KT 6SM -RA BR BKN015 BKN020 OVC066 11/10 A3016 RMK SLP216
  • 180951Z AUTO 15002KT 5SM -RA BR BKN015 OVC066 11/10 A3016 RMK SLP216
  • 180941Z AUTO 00000KT 6SM -RA BR OVC015 11/10 A3016 RMK SLP217
  • 180923Z AUTO VRB02KT 5SM -RA BR BKN015 BKN020 BKN032 OVC042 11/10 A3016 RMK SLP217
  • 180911Z AUTO VRB02KT 9SM -RA BKN017 BKN032 OVC042 11/10 A3016 RMK SLP217
  • 180844Z AUTO 16003KT 120V190 9SM -RA SCT019 SCT037 BKN060 OVC076 11/10 A3016 RMK SLP217

TAF TAF CYPR
Valid from the 18 at 07:00 until the 18 at 19:00 UTC


180641Z 1807/1819 VRB03KT P6SM OVC025
TEMPO 1807/1815 5SM -SHRA BR OVC015
FM181500 16008KT P6SM SCT015 BKN030 RMK FCST BASED ON AUTO OBS. NXT FCST BY 181300Z
CZVR FIR / North America



MET'MAP, your aeronautical weather chart ! - Copyright ORBIFLY December 2007 - Disclaimer

ORBIFLY MET'MAP TEAM :

Programming & Development : Alexandra Zaïnal
Concept & original design : Baudouin d'Aumeries
Assistance for programming : Marc-Olivier Méhu
Technical & hardware support : Manuel Goepfert

Contact : metmap@orbifly.com




SOURCES & CREDITS :

   NOAA       Earth
Advisory